Accueil
METAR-TAF:

METAR-TAF

Aéroports :

Aéroport international d'Ivato

Tananarive, Madagascar

latitude: 18-48S, longitude: 047-29E, altitude: 1279 m

Observation

Le bulletin a été fait il y a 37 minutes, à 07:00 UTC
Vent 14 kt de sud-est, variant entre est/sud-est et sud
Température 17°C
Humidité 59%
Pression 1026 hPa
Visibilité 10 km ou plus
Nuages fragmentés à une hauteur de 2300 ft

METAR: FMMI 030700Z 14014KT 110V170 9999 BKN023 17/09 Q1026 NOSIG

Heure: 10:37 (07:37 UTC)

Prévision

Le bulletin a été fait il y a 2 heures et 37 minutes, à 05:00 UTC
Prévision valable du 03 à 06 UTC au 04 à 12 UTC
Vent 12 kt de sud-est
Visibilité 10 km ou plus
Quelques nuages à une hauteur de 1700 ft
Nuages fragmentés à une hauteur de 2000 ft

TAF: FMMI 030500Z 0306/0412 14012KT 9999 FEW017 BKN020

Observations et prévisions météorologiques de plus de 4000 aéroports (messages METAR et TAF).

Les stations disponibles sont représentées par des disques jaunes et rouges sur la carte.

Passer la souris dessus pour voir le nom de la station.

Cliquer dessus pour voir les observations et prévisions météorologiques.

Pour changer de carte: cliquez sur les boutons verts avec une croix noire pour zoomer, sur le bouton vert avec un tiret pour effectuer un zoom arrière, ou sur les flèches vertes pour les cartes adjacentes.


METAR-TAF: